Terminal Aerodrome Forecast
Issued by NWS Mobile, AL

Home | Current Version | Previous Version | Text Only | Print | Product List | Glossary On
Versions: 1 2 3 4 5 6 7 8 9 10 11 12 13 14 15 16 17 18 19 20 21 22 23 24 25 26
000
FTUS44 KMOB 252333
TAFPNS
TAF
KPNS 252333Z 2600/2624 13011KT P6SM VCSH FEW015 BKN022
     FM260600 14006KT 5SM BR VCSH BKN015
     FM261400 16015G22KT P6SM VCTS SCT025CB BKN035 PROB30 2615/2621
      5SM TSRA BKN025CB=

USA.gov is the U.S. government's official web portal to all federal, state and local government web resources and services.